Time;durP1;ratioP1;P1;durP2;ratioP2;P2;SDS_P1;SDS_P2;PMS_P1;PMS_P2;Temp;Humidity;BMP_temperature;BMP_pressure;BME280_temperature;BME280_humidity;BME280_pressure;Samples;Min_cycle;Max_cycle;Signal;HPM_P1;HPM_P2
2023/10/28 11:11:25;;;;;;;5.87;4.23;;;19.80;65.40;;;;;;5069368;27;20596;-48
2023/10/28 11:13:53;;;;;;;7.57;3.40;;;20.30;61.00;;;;;;5067658;28;20197;-50
2023/10/28 11:16:30;;;;;;;14.03;6.93;;;20.50;59.40;;;;;;5066644;28;20212;-65
2023/10/28 11:19:02;;;;;;;9.07;5.77;;;18.40;51.80;;;;;;5067549;28;20200;-70
2023/10/28 11:21:38;;;;;;;10.93;6.23;;;16.10;57.40;;;;;;5085933;28;20664;-67
2023/10/28 11:24:08;;;;;;;12.53;7.87;;;14.40;62.80;;;;;;5087536;28;20250;-64
2023/10/28 11:26:38;;;;;;;8.20;6.40;;;13.20;68.20;;;;;;5087440;28;20199;-65
2023/10/28 11:29:11;;;;;;;21.20;12.50;;;12.60;75.90;;;;;;5087657;28;20198;-68
2023/10/28 11:31:56;;;;;;;9.40;7.27;;;12.10;80.20;;;;;;5087454;28;20552;-66
2023/10/28 11:35:49;;;;;;;10.80;7.60;;;12.00;79.90;;;;;;5074530;28;20670;-66
2023/10/28 11:38:43;;;;;;;13.07;9.10;;;11.80;82.40;;;;;;4988319;28;20261;-66
2023/10/28 11:41:22;;;;;;;13.73;9.57;;;11.60;86.70;;;;;;4991121;28;20212;-65
2023/10/28 11:44:27;;;;;;;10.37;7.03;;;11.40;87.00;;;;;;4997335;28;20215;-66
2023/10/28 11:47:23;;;;;;;17.80;11.60;;;11.20;87.30;;;;;;4994448;28;20242;-66
2023/10/28 11:50:31;;;;;;;16.33;9.60;;;11.00;90.70;;;;;;4984720;28;20283;-66
2023/10/28 11:53:04;;;;;;;11.90;9.07;;;11.00;91.10;;;;;;4986464;28;20215;-66
2023/10/28 11:56:09;;;;;;;16.47;11.37;;;11.00;92.00;;;;;;5003902;28;20201;-66
2023/10/28 11:59:13;;;;;;;24.30;12.57;;;11.00;93.40;;;;;;5004081;28;20583;-67
2023/10/28 12:02:05;;;;;;;22.20;14.50;;;10.90;93.00;;;;;;5004267;28;20303;-66
2023/10/28 12:04:36;;;;;;;21.37;13.70;;;10.80;93.50;;;;;;5004133;28;20224;-66
2023/10/28 12:07:11;;;;;;;22.10;14.80;;;10.60;93.60;;;;;;5003914;28;20294;-66
2023/10/28 12:09:55;;;;;;;17.53;12.37;;;10.50;92.90;;;;;;5003541;28;20314;-66
2023/10/28 12:12:52;;;;;;;15.23;10.40;;;10.40;94.70;;;;;;5004033;28;20712;-66
2023/10/28 12:15:32;;;;;;;7.93;5.57;;;10.50;95.30;;;;;;4935538;28;20260;-67
2023/10/28 12:18:09;;;;;;;12.57;9.03;;;10.40;94.70;;;;;;4965120;28;21075;-66
2023/10/28 12:20:59;;;;;;;5.80;4.53;;;10.40;94.10;;;;;;4963568;28;20192;-66
2023/10/28 12:23:28;;;;;;;6.07;5.00;;;10.30;94.30;;;;;;4949084;28;20686;-67
2023/10/28 12:26:04;;;;;;;6.57;5.97;;;10.20;95.50;;;;;;4957995;28;20203;-66
2023/10/28 12:28:33;;;;;;;50.97;20.50;;;10.20;95.50;;;;;;4971318;28;21116;-67
2023/10/28 12:31:12;;;;;;;41.10;15.43;;;10.20;95.90;;;;;;4971483;28;20220;-67
2023/10/28 12:33:46;;;;;;;17.97;8.03;;;10.20;96.70;;;;;;4971037;28;20207;-67
2023/10/28 12:36:27;;;;;;;41.40;37.00;;;10.20;96.50;;;;;;4971490;28;20227;-67
2023/10/28 12:38:57;;;;;;;15.43;13.60;;;10.20;96.30;;;;;;4954658;28;20212;-67
2023/10/28 12:41:28;;;;;;;8.77;6.33;;;10.20;96.00;;;;;;4971358;28;20207;-67
2023/10/28 12:43:59;;;;;;;6.30;5.47;;;10.20;96.00;;;;;;4971193;28;20208;-67
2023/10/28 12:46:36;;;;;;;10.20;6.17;;;10.20;96.20;;;;;;5062943;28;20589;-66
2023/10/28 12:52:24;;;;;;;9.50;6.83;;;10.10;95.30;;;;;;5000491;28;20217;-67
2023/10/28 12:54:56;;;;;;;13.10;11.70;;;10.10;95.00;;;;;;5009889;28;20210;-67
2023/10/28 12:57:34;;;;;;;12.37;10.13;;;10.10;95.90;;;;;;5009496;28;20261;-66
2023/10/28 13:00:18;;;;;;;22.67;14.33;;;10.10;96.00;;;;;;5010055;28;20203;-67
2023/10/28 13:03:09;;;;;;;12.57;9.30;;;10.00;96.10;;;;;;5009289;28;20213;-67
2023/10/28 13:06:19;;;;;;;13.03;8.57;;;10.10;95.90;;;;;;4978411;28;20207;-66
2023/10/28 13:08:51;;;;;;;10.97;7.17;;;10.00;96.10;;;;;;5007116;28;20206;-67
2023/10/28 13:11:31;;;;;;;13.17;7.23;;;9.90;95.90;;;;;;5009461;28;20256;-67
2023/10/28 13:14:00;;;;;;;9.93;7.07;;;10.00;96.30;;;;;;5009424;28;20205;-67
2023/10/28 13:16:30;;;;;;;7.40;6.33;;;9.90;96.30;;;;;;5009788;28;20217;-67
2023/10/28 13:19:02;;;;;;;28.23;22.63;;;9.90;96.00;;;;;;5009367;28;20222;-66
2023/10/28 13:21:53;;;;;;;94.80;37.50;;;9.90;95.90;;;;;;5009943;28;20198;-66
2023/10/28 13:24:40;;;;;;;49.67;17.67;;;9.80;96.20;;;;;;4981728;28;20233;-68
2023/10/28 13:27:12;;;;;;;20.60;11.67;;;9.70;96.10;;;;;;5009567;28;20220;-66
2023/10/28 13:29:49;;;;;;;13.30;9.70;;;9.70;97.00;;;;;;5039118;28;20342;-66
2023/10/28 13:32:23;;;;;;;7.53;5.97;;;9.70;97.60;;;;;;5050534;28;20325;-66
2023/10/28 13:35:00;;;;;;;8.10;6.80;;;9.70;97.60;;;;;;5050418;28;20315;-67
2023/10/28 13:37:30;;;;;;;17.50;11.50;;;9.70;97.90;;;;;;5050953;28;20229;-66
2023/10/28 13:39:59;;;;;;;18.63;11.67;;;9.70;97.80;;;;;;5050986;28;20196;-66
2023/10/28 13:42:29;;;;;;;27.93;13.43;;;9.80;98.60;;;;;;5050722;28;20620;-67
2023/10/28 13:45:00;;;;;;;28.13;15.23;;;9.70;97.50;;;;;;5050555;28;20209;-66
2023/10/28 13:47:37;;;;;;;32.03;15.60;;;9.70;97.80;;;;;;5050704;28;20308;-67
2023/10/28 13:50:11;;;;;;;11.13;9.00;;;9.70;98.20;;;;;;5050387;28;20212;-66
2023/10/28 13:52:43;;;;;;;12.53;8.77;;;9.70;97.50;;;;;;5050582;28;20205;-68
2023/10/28 13:55:22;;;;;;;8.97;8.07;;;9.70;98.10;;;;;;5050253;28;20200;-67
2023/10/28 13:57:53;;;;;;;12.70;10.03;;;9.60;98.30;;;;;;5070511;28;20192;-68
2023/10/28 14:00:29;;;;;;;14.07;9.23;;;9.50;99.90;;;;;;5070478;28;20263;-67
2023/10/28 14:03:01;;;;;;;9.70;8.53;;;9.40;99.90;;;;;;5070307;28;20613;-67
2023/10/28 14:05:40;;;;;;;12.67;8.97;;;9.40;99.90;;;;;;5064902;28;20307;-66
2023/10/28 14:08:12;;;;;;;14.13;9.73;;;9.50;99.90;;;;;;5050200;28;20216;-67
2023/10/28 14:10:48;;;;;;;15.47;10.30;;;9.50;99.90;;;;;;5049909;28;20304;-66
2023/10/28 14:13:21;;;;;;;12.10;8.57;;;9.50;99.90;;;;;;5050241;28;20213;-67
2023/10/28 14:15:51;;;;;;;21.50;14.57;;;9.50;99.90;;;;;;5050273;28;20255;-66
2023/10/28 14:18:25;;;;;;;30.63;18.80;;;9.50;99.90;;;;;;5050155;28;20232;-66
2023/10/28 14:20:57;;;;;;;28.73;20.60;;;9.60;99.90;;;;;;5049336;28;20589;-66
2023/10/28 14:23:30;;;;;;;24.77;15.47;;;9.60;99.90;;;;;;5050335;28;20574;-67
2023/10/28 14:26:00;;;;;;;22.83;16.60;;;9.60;99.90;;;;;;5055600;28;20207;-67
2023/10/28 14:28:35;;;;;;;18.97;15.23;;;9.40;99.90;;;;;;5070136;28;20666;-66
2023/10/28 14:31:05;;;;;;;24.40;16.43;;;9.50;99.70;;;;;;5069986;28;20708;-68
2023/10/28 14:33:37;;;;;;;36.80;28.63;;;9.40;98.70;;;;;;5070625;28;20211;-67
2023/10/28 14:36:10;;;;;;;114.93;94.40;;;9.50;99.20;;;;;;5052345;28;20205;-67
2023/10/28 14:38:42;;;;;;;64.27;50.60;;;9.50;99.00;;;;;;5049874;28;20212;-67
2023/10/28 14:41:19;;;;;;;31.33;25.23;;;9.60;98.80;;;;;;5049038;28;20213;-68
2023/10/28 14:43:50;;;;;;;35.23;23.13;;;9.60;98.60;;;;;;5054015;28;20615;-69
2023/10/28 14:46:46;;;;;;;33.13;19.33;;;9.60;97.90;;;;;;5069870;28;20706;-68
2023/10/28 14:54:03;;;;;;;22.73;18.07;;;9.40;99.90;;;;;;5007538;28;20229;-69
2023/10/28 14:57:05;;;;;;;25.73;18.83;;;9.50;99.90;;;;;;5007472;28;20221;-68
2023/10/28 15:00:11;;;;;;;31.37;21.00;;;9.40;99.90;;;;;;5007500;28;20692;-68
2023/10/28 15:02:40;;;;;;;30.40;20.77;;;9.20;99.90;;;;;;5007514;28;20339;-69
2023/10/28 15:05:45;;;;;;;28.03;18.30;;;9.20;99.90;;;;;;5007422;28;20218;-68
2023/10/28 15:08:49;;;;;;;24.43;16.60;;;9.20;99.90;;;;;;5007526;28;20199;-68
2023/10/28 15:11:53;;;;;;;21.23;14.57;;;9.20;99.90;;;;;;5007135;28;20238;-69
2023/10/28 15:15:04;;;;;;;37.03;19.00;;;9.20;99.90;;;;;;4911034;29;20222;-68
2023/10/28 15:17:38;;;;;;;43.80;22.50;;;9.20;99.90;;;;;;4911005;29;20715;-68
2023/10/28 15:20:16;;;;;;;57.77;28.37;;;9.20;99.90;;;;;;4895340;29;20583;-68
2023/10/28 15:23:00;;;;;;;46.97;28.37;;;9.30;99.90;;;;;;4910553;29;20220;-68
2023/10/28 15:26:05;;;;;;;41.07;27.37;;;9.30;99.90;;;;;;4895247;29;20207;-68
2023/10/28 15:28:59;;;;;;;36.50;25.80;;;9.20;99.90;;;;;;4895237;29;20345;-68
2023/10/28 15:31:34;;;;;;;24.67;18.10;;;9.30;99.90;;;;;;4980159;28;20223;-68
2023/10/28 15:34:25;;;;;;;24.13;16.83;;;9.30;99.90;;;;;;4996211;28;20203;-69
2023/10/28 15:36:57;;;;;;;26.80;17.07;;;9.20;99.90;;;;;;4971846;28;20220;-67
2023/10/28 15:39:25;;;;;;;23.77;16.40;;;9.20;99.90;;;;;;4995284;28;20676;-69
2023/10/28 15:41:57;;;;;;;31.70;17.80;;;9.20;99.90;;;;;;5007159;28;20675;-69
2023/10/28 15:44:39;;;;;;;31.57;18.83;;;9.20;99.90;;;;;;5007197;28;20224;-67
2023/10/28 15:47:13;;;;;;;30.37;20.37;;;9.10;99.90;;;;;;4929464;29;20220;-69
2023/10/28 15:49:52;;;;;;;29.77;19.90;;;9.00;99.90;;;;;;4929535;29;20619;-68
2023/10/28 15:52:24;;;;;;;31.10;20.53;;;9.00;99.90;;;;;;5003973;28;20233;-67
2023/10/28 15:54:54;;;;;;;25.50;19.23;;;9.10;99.90;;;;;;5006246;28;20930;-67
2023/10/28 15:57:28;;;;;;;28.87;19.03;;;9.10;99.90;;;;;;5008052;28;20207;-67
2023/10/28 16:00:15;;;;;;;22.97;15.53;;;9.10;99.90;;;;;;5009668;28;20228;-67
2023/10/28 16:02:44;;;;;;;28.60;17.70;;;9.10;99.90;;;;;;4999564;28;20828;-67
2023/10/28 16:05:23;;;;;;;25.13;17.30;;;9.10;99.90;;;;;;5026451;28;20200;-68
2023/10/28 16:08:07;;;;;;;21.47;14.97;;;9.10;99.90;;;;;;5051920;28;20196;-68
2023/10/28 16:10:36;;;;;;;24.97;16.87;;;9.10;99.90;;;;;;5062710;28;20607;-67
2023/10/28 16:13:12;;;;;;;37.30;21.17;;;9.00;99.90;;;;;;5051716;28;20825;-67
2023/10/28 16:16:07;;;;;;;30.67;18.83;;;8.90;99.90;;;;;;5051972;28;20254;-68
2023/10/28 16:19:24;;;;;;;26.40;17.27;;;8.60;99.90;;;;;;4970269;28;20211;-68
2023/10/28 16:22:36;;;;;;;18.13;13.03;;;8.50;99.90;;;;;;4970098;28;20706;-67
2023/10/28 16:25:59;;;;;;;;;;;;;;;;;;;;;
2023/10/28 16:29:06;;;;;;;20.83;13.47;;;8.40;99.90;;;;;;4888806;29;20264;-68
2023/10/28 16:35:44;;;;;;;20.37;14.20;;;8.50;99.90;;;;;;4874972;29;20302;-68
2023/10/28 16:38:29;;;;;;;19.37;14.47;;;8.60;99.90;;;;;;4934222;29;20216;-68
2023/10/28 16:42:04;;;;;;;21.97;15.97;;;8.60;99.90;;;;;;4945842;29;20221;-67
2023/10/28 16:45:14;;;;;;;27.63;16.73;;;8.60;99.90;;;;;;4932147;29;20269;-67
2023/10/28 16:51:58;;;;;;;23.07;17.80;;;8.70;99.90;;;;;;4856934;29;20267;-68
2023/10/28 16:54:29;;;;;;;29.53;20.47;;;8.60;99.90;;;;;;4857059;29;20219;-67
2023/10/28 16:56:58;;;;;;;27.80;18.57;;;8.60;99.90;;;;;;4874057;29;20241;-66
2023/10/28 16:59:29;;;;;;;31.33;20.20;;;8.50;99.90;;;;;;4878626;29;20217;-67
2023/10/28 17:02:01;;;;;;;30.80;20.47;;;8.60;99.90;;;;;;4912769;29;20654;-67
2023/10/28 17:04:30;;;;;;;37.17;23.70;;;8.50;99.90;;;;;;4912609;29;20213;-66
2023/10/28 17:07:02;;;;;;;39.53;24.97;;;8.40;99.90;;;;;;4967455;28;20666;-67
2023/10/28 17:09:32;;;;;;;41.00;26.43;;;8.40;99.90;;;;;;4969529;28;20949;-67
2023/10/28 17:12:05;;;;;;;47.97;28.37;;;8.40;99.90;;;;;;4970063;28;20568;-67
2023/10/28 17:14:35;;;;;;;44.23;27.70;;;8.60;99.90;;;;;;4969988;28;20738;-66
2023/10/28 17:17:10;;;;;;;46.17;29.30;;;8.60;99.90;;;;;;4969871;28;20200;-67
2023/10/28 17:19:40;;;;;;;54.10;32.17;;;8.70;99.90;;;;;;4953962;28;20214;-67
2023/10/28 17:22:13;;;;;;;56.33;31.80;;;8.80;99.90;;;;;;4969593;28;20586;-67
2023/10/28 17:24:43;;;;;;;54.33;31.67;;;8.80;99.90;;;;;;4973146;28;20644;-66
2023/10/28 17:27:23;;;;;;;53.70;32.20;;;8.80;99.90;;;;;;4990290;28;20198;-66
2023/10/28 17:29:53;;;;;;;45.77;28.90;;;8.80;99.90;;;;;;5050560;28;20214;-66
2023/10/28 17:32:22;;;;;;;30.57;19.27;;;8.90;99.90;;;;;;5051234;28;20224;-67
2023/10/28 17:34:53;;;;;;;24.73;15.40;;;8.80;99.90;;;;;;5050917;28;20197;-66
2023/10/28 17:37:29;;;;;;;23.60;15.90;;;8.80;99.90;;;;;;5050152;28;20192;-67
2023/10/28 17:39:59;;;;;;;16.77;12.87;;;8.80;99.90;;;;;;5050634;28;20204;-66
2023/10/28 17:42:28;;;;;;;16.97;12.27;;;8.80;99.90;;;;;;5050956;28;20664;-67
2023/10/28 17:44:59;;;;;;;17.47;12.20;;;8.80;99.90;;;;;;5050729;28;20204;-67
2023/10/28 17:47:28;;;;;;;22.20;13.77;;;8.90;99.90;;;;;;5050623;28;20659;-67
2023/10/28 17:50:00;;;;;;;15.43;11.03;;;8.80;99.90;;;;;;5050470;28;20197;-67
2023/10/28 17:52:30;;;;;;;20.43;12.80;;;8.90;99.90;;;;;;5049860;28;20678;-67
2023/10/28 17:55:13;;;;;;;15.67;10.47;;;8.90;99.90;;;;;;5056031;28;20250;-67
2023/10/28 17:57:47;;;;;;;12.47;8.67;;;8.80;99.90;;;;;;5070159;28;20215;-66
2023/10/28 18:00:19;;;;;;;17.20;10.77;;;8.90;99.90;;;;;;5070212;28;20204;-66
2023/10/28 18:02:49;;;;;;;14.90;9.83;;;8.90;99.90;;;;;;5070268;28;20606;-66
2023/10/28 18:05:18;;;;;;;16.63;11.90;;;8.90;99.90;;;;;;5070090;28;20200;-66
2023/10/28 18:07:51;;;;;;;17.33;11.23;;;8.90;99.90;;;;;;5069513;28;20662;-66
2023/10/28 18:10:22;;;;;;;18.57;11.13;;;8.90;99.90;;;;;;5069441;28;20679;-66
2023/10/28 18:12:52;;;;;;;20.23;10.37;;;8.90;99.90;;;;;;5069800;28;20230;-67
2023/10/28 18:15:21;;;;;;;16.20;10.93;;;8.90;99.90;;;;;;5069928;28;20280;-67
2023/10/28 18:17:50;;;;;;;14.03;9.77;;;8.90;99.90;;;;;;5070023;28;20621;-66
2023/10/28 18:20:21;;;;;;;13.73;10.30;;;8.90;99.90;;;;;;5069343;28;20205;-67
2023/10/28 18:22:52;;;;;;;17.83;9.63;;;8.80;99.90;;;;;;5069479;28;20736;-67
2023/10/28 18:25:22;;;;;;;14.97;9.70;;;8.80;99.90;;;;;;5069783;28;20295;-66
2023/10/28 18:27:51;;;;;;;19.60;10.90;;;8.90;99.90;;;;;;5069802;28;20235;-67
2023/10/28 18:30:20;;;;;;;28.53;12.03;;;8.80;99.90;;;;;;5069710;28;20250;-67
2023/10/28 18:32:51;;;;;;;24.33;9.87;;;8.90;99.90;;;;;;5069519;28;20228;-66
2023/10/28 18:35:38;;;;;;;15.57;8.30;;;8.90;99.90;;;;;;5068405;28;20209;-67
2023/10/28 18:38:10;;;;;;;14.83;8.63;;;8.90;99.90;;;;;;5068605;28;20207;-66
2023/10/28 18:40:42;;;;;;;13.37;9.60;;;8.80;99.90;;;;;;5069634;28;20203;-67
2023/10/28 18:43:22;;;;;;;24.27;14.73;;;8.80;99.90;;;;;;5069340;28;20561;-67
2023/10/28 18:45:57;;;;;;;23.57;15.60;;;8.80;99.90;;;;;;5069554;28;20631;-67
2023/10/28 18:48:26;;;;;;;20.53;13.00;;;8.70;99.90;;;;;;5069525;28;20654;-67
2023/10/28 18:50:55;;;;;;;23.63;13.47;;;8.50;99.90;;;;;;5068597;28;20299;-66
2023/10/28 18:53:29;;;;;;;22.23;13.57;;;8.50;99.90;;;;;;5069416;28;20220;-68
2023/10/28 18:56:07;;;;;;;19.70;13.77;;;8.30;99.90;;;;;;5069254;28;20681;-67
2023/10/28 18:58:39;;;;;;;20.97;13.77;;;8.30;99.90;;;;;;5069702;28;20206;-67
2023/10/28 19:01:15;;;;;;;27.43;14.63;;;8.40;99.90;;;;;;5069317;28;20214;-68
2023/10/28 19:09:46;;;;;;;13.73;9.90;;;8.40;99.90;;;;;;5026590;28;20243;-67
2023/10/28 19:12:20;;;;;;;17.37;11.97;;;8.40;99.90;;;;;;5026470;28;20232;-65
2023/10/28 19:15:04;;;;;;;16.37;11.73;;;8.50;99.90;;;;;;5027191;28;20245;-66
2023/10/28 19:17:43;;;;;;;19.40;13.20;;;8.50;99.90;;;;;;5012419;28;20208;-66
2023/10/28 19:20:14;;;;;;;16.13;12.23;;;8.50;99.90;;;;;;5026222;28;20206;-66
2023/10/28 19:22:44;;;;;;;20.27;12.77;;;8.60;99.90;;;;;;5026520;28;20210;-66
2023/10/28 19:25:21;;;;;;;20.33;14.13;;;8.60;99.90;;;;;;5026405;28;20279;-66
2023/10/28 19:28:27;;;;;;;35.50;21.27;;;8.60;99.90;;;;;;5026300;28;20256;-66
2023/10/28 19:31:04;;;;;;;32.97;20.23;;;8.60;99.90;;;;;;5026749;28;20293;-66
2023/10/28 19:33:39;;;;;;;23.07;16.00;;;8.60;99.90;;;;;;5020049;28;20299;-67
2023/10/28 19:36:13;;;;;;;18.23;11.93;;;8.60;99.90;;;;;;5000743;28;20205;-67
2023/10/28 19:38:42;;;;;;;14.53;10.40;;;8.60;99.90;;;;;;5010752;28;20229;-67
2023/10/28 19:41:15;;;;;;;14.03;9.43;;;8.60;99.90;;;;;;5014596;28;20209;-67
2023/10/28 19:44:06;;;;;;;11.37;8.47;;;8.60;99.90;;;;;;5014147;28;20221;-66
2023/10/28 19:46:41;;;;;;;19.63;13.87;;;8.60;99.90;;;;;;5025474;28;20620;-66
2023/10/28 19:49:19;;;;;;;25.90;17.93;;;8.50;99.90;;;;;;5052909;28;20209;-67
2023/10/28 19:54:50;;;;;;;29.63;19.33;;;8.10;99.90;;;;;;5056513;28;20303;-67
2023/10/28 19:57:30;;;;;;;29.23;19.97;;;8.00;99.90;;;;;;5073147;28;20212;-66
2023/10/28 20:00:14;;;;;;;26.97;18.33;;;8.20;99.90;;;;;;5072752;28;20582;-66
2023/10/28 20:02:43;;;;;;;20.83;14.77;;;8.30;99.90;;;;;;5072568;28;20700;-67
2023/10/28 20:05:25;;;;;;;20.63;14.03;;;8.30;99.90;;;;;;5064654;28;20210;-67
2023/10/28 20:11:46;;;;;;;21.40;14.70;;;8.10;99.90;;;;;;4970123;28;20230;-67
2023/10/28 20:14:21;;;;;;;20.77;13.63;;;7.90;99.90;;;;;;5019392;28;20744;-67
2023/10/28 20:16:51;;;;;;;17.27;12.93;;;7.90;99.90;;;;;;5026160;28;20207;-67
2023/10/28 20:19:21;;;;;;;16.33;12.20;;;7.90;99.90;;;;;;5029770;28;20205;-67
2023/10/28 20:21:50;;;;;;;16.30;11.47;;;7.90;99.90;;;;;;5029694;28;20229;-66
2023/10/28 20:24:25;;;;;;;13.73;9.77;;;7.80;99.90;;;;;;5029242;28;20209;-67
2023/10/28 20:27:08;;;;;;;16.20;9.37;;;7.70;99.90;;;;;;5007025;28;20259;-67
2023/10/28 20:29:41;;;;;;;12.77;10.03;;;7.80;99.90;;;;;;5010062;28;20332;-66
2023/10/28 20:32:11;;;;;;;14.13;9.50;;;7.80;99.90;;;;;;5010179;28;20204;-67
2023/10/28 20:34:42;;;;;;;14.53;9.83;;;7.80;99.90;;;;;;5009759;28;20631;-67
2023/10/28 20:37:22;;;;;;;15.00;9.93;;;7.70;99.90;;;;;;5009800;28;20238;-66
2023/10/28 20:40:06;;;;;;;14.33;9.37;;;7.80;99.90;;;;;;5009329;28;20214;-66
2023/10/28 20:42:40;;;;;;;13.57;9.53;;;7.80;99.90;;;;;;5003358;28;20296;-67
2023/10/28 20:45:22;;;;;;;14.73;10.00;;;7.70;99.90;;;;;;4999096;28;20214;-66
2023/10/28 20:47:59;;;;;;;19.80;12.70;;;7.80;99.90;;;;;;5003675;28;20219;-67
2023/10/28 20:50:37;;;;;;;16.87;11.63;;;7.80;99.90;;;;;;5027880;28;20208;-68
2023/10/28 20:53:10;;;;;;;18.17;12.27;;;7.90;99.90;;;;;;5030823;28;20196;-67
2023/10/28 20:55:47;;;;;;;20.07;11.73;;;7.80;99.90;;;;;;5032065;28;20240;-66
2023/10/28 20:58:22;;;;;;;16.83;11.87;;;7.70;99.90;;;;;;5029128;28;20208;-67
2023/10/28 21:00:54;;;;;;;18.97;12.73;;;8.00;99.90;;;;;;5030424;28;20704;-66
2023/10/28 21:03:28;;;;;;;22.23;13.90;;;8.00;99.90;;;;;;5030908;28;20283;-66
2023/10/28 21:06:00;;;;;;;14.67;10.70;;;8.10;99.90;;;;;;5031424;28;20209;-67
2023/10/28 21:08:34;;;;;;;18.23;10.87;;;8.20;99.90;;;;;;5031315;28;20283;-66
2023/10/28 21:11:21;;;;;;;12.90;9.17;;;8.10;99.90;;;;;;5062313;28;20240;-68
2023/10/28 21:13:54;;;;;;;14.03;9.40;;;8.10;99.90;;;;;;5068311;28;20195;-67
2023/10/28 21:16:25;;;;;;;14.13;9.37;;;8.20;99.90;;;;;;5062449;28;20223;-66
2023/10/28 21:19:02;;;;;;;12.17;9.03;;;8.20;99.90;;;;;;5071653;28;20311;-67
2023/10/28 21:21:33;;;;;;;11.00;7.50;;;8.20;99.90;;;;;;5070792;28;20194;-66
2023/10/28 21:24:17;;;;;;;11.37;6.33;;;8.20;99.80;;;;;;5070908;28;20206;-68
2023/10/28 21:26:49;;;;;;;8.00;5.17;;;8.10;99.60;;;;;;5050889;28;20250;-66
2023/10/28 21:29:22;;;;;;;7.73;5.10;;;7.90;98.40;;;;;;5053035;28;20214;-67
2023/10/28 21:31:57;;;;;;;4.43;4.03;;;7.90;99.60;;;;;;5070801;28;20196;-67
2023/10/28 21:34:26;;;;;;;8.23;4.50;;;7.90;99.30;;;;;;5070679;28;20206;-67
2023/10/28 21:37:38;;;;;;;5.60;4.67;;;7.80;99.90;;;;;;5070128;28;20204;-67
2023/10/28 21:40:33;;;;;;;5.57;4.90;;;7.70;99.90;;;;;;5028129;28;20260;-67
2023/10/28 21:43:02;;;;;;;9.23;5.53;;;7.80;99.90;;;;;;5028130;28;20348;-66
2023/10/28 21:45:57;;;;;;;8.47;6.33;;;7.70;99.90;;;;;;5027682;28;20213;-67
2023/10/28 21:48:44;;;;;;;7.47;6.47;;;7.70;99.90;;;;;;5028121;28;20208;-67
2023/10/28 21:51:19;;;;;;;7.83;6.00;;;7.70;99.90;;;;;;5019845;28;20218;-70
2023/10/28 21:54:04;;;;;;;6.43;5.30;;;7.80;99.90;;;;;;5024571;28;20773;-68
2023/10/28 21:56:44;;;;;;;8.70;6.30;;;7.60;99.90;;;;;;5027775;28;20277;-66
2023/10/28 21:59:53;;;;;;;8.37;6.37;;;7.50;99.90;;;;;;5027698;28;20212;-66
2023/10/28 22:02:42;;;;;;;6.63;5.70;;;7.50;99.90;;;;;;4949761;28;20693;-66
2023/10/28 22:05:36;;;;;;;8.03;6.23;;;7.30;99.90;;;;;;4948517;28;20598;-66
2023/10/28 22:08:13;;;;;;;7.87;6.53;;;7.40;99.90;;;;;;4949524;28;20203;-67
2023/10/28 22:10:43;;;;;;;9.93;7.50;;;7.50;99.90;;;;;;4933249;29;20691;-67
2023/10/28 22:13:23;;;;;;;7.67;6.90;;;7.70;99.90;;;;;;4949694;28;20253;-68
2023/10/28 22:16:08;;;;;;;14.10;6.80;;;7.80;99.90;;;;;;4951614;28;20243;-67
2023/10/28 22:18:44;;;;;;;8.77;7.17;;;7.90;99.90;;;;;;4968989;28;20296;-66
2023/10/28 22:21:14;;;;;;;7.30;6.60;;;8.00;99.90;;;;;;4968327;28;20202;-66
2023/10/28 22:23:44;;;;;;;7.67;6.87;;;8.00;99.90;;;;;;4968666;28;20207;-67
2023/10/28 22:26:16;;;;;;;7.33;6.17;;;7.80;99.90;;;;;;4968767;28;20210;-67
2023/10/28 22:28:45;;;;;;;6.70;6.00;;;7.80;99.90;;;;;;4968585;28;20215;-67
2023/10/28 22:31:19;;;;;;;7.90;6.70;;;7.80;99.90;;;;;;4968214;28;20265;-67
2023/10/28 22:33:48;;;;;;;7.33;6.57;;;7.80;99.90;;;;;;5050430;28;20266;-65
2023/10/28 22:36:23;;;;;;;7.13;6.10;;;7.80;99.90;;;;;;5069574;28;20234;-67
2023/10/28 22:38:58;;;;;;;6.50;5.80;;;7.90;99.90;;;;;;5058501;28;20204;-66
2023/10/28 22:41:30;;;;;;;6.03;5.43;;;7.80;99.90;;;;;;5049697;28;20278;-67
2023/10/28 22:44:06;;;;;;;5.70;5.20;;;7.70;99.90;;;;;;5049309;28;20206;-67
2023/10/28 22:46:46;;;;;;;6.37;5.70;;;7.60;99.90;;;;;;5048907;28;20214;-67
2023/10/28 22:49:30;;;;;;;8.13;5.93;;;7.60;99.90;;;;;;5049170;28;20216;-67
2023/10/28 22:52:11;;;;;;;6.70;6.07;;;7.70;99.90;;;;;;5081025;28;20293;-67
2023/10/28 22:58:21;;;;;;;8.03;5.63;;;7.50;99.90;;;;;;4980505;28;20224;-66
2023/10/28 23:00:50;;;;;;;6.00;5.30;;;7.50;99.90;;;;;;4986982;28;20547;-66
2023/10/28 23:03:19;;;;;;;5.50;5.00;;;7.40;99.90;;;;;;4969646;28;20237;-66
2023/10/28 23:05:49;;;;;;;7.37;5.40;;;7.00;99.90;;;;;;4969786;28;20276;-66
2023/10/28 23:08:21;;;;;;;5.83;5.30;;;7.00;99.90;;;;;;4978509;28;20276;-66
2023/10/28 23:10:54;;;;;;;5.93;5.43;;;7.00;99.90;;;;;;4989409;28;20251;-66
2023/10/28 23:13:28;;;;;;;6.43;5.50;;;7.10;99.90;;;;;;4972264;28;20205;-66
2023/10/28 23:15:58;;;;;;;6.77;6.07;;;7.20;99.90;;;;;;4989481;28;20332;-67
2023/10/28 23:18:27;;;;;;;7.13;6.37;;;7.30;99.90;;;;;;4990272;28;20200;-66
2023/10/28 23:20:58;;;;;;;7.77;6.27;;;7.40;99.90;;;;;;4989432;28;20692;-66
2023/10/28 23:23:39;;;;;;;6.50;5.87;;;7.50;99.90;;;;;;4989283;28;20321;-66
2023/10/28 23:26:23;;;;;;;;;;;;;;;;;;;;;
2023/10/28 23:28:57;;;;;;;7.53;6.70;;;7.50;99.90;;;;;;4989457;28;20657;-66
2023/10/28 23:31:28;;;;;;;8.73;7.30;;;7.60;99.90;;;;;;4989242;28;20653;-67
2023/10/28 23:34:04;;;;;;;9.67;7.13;;;7.60;99.90;;;;;;4989125;28;20246;-66
2023/10/28 23:36:35;;;;;;;8.50;7.23;;;7.60;99.90;;;;;;4988811;28;20251;-67
2023/10/28 23:39:05;;;;;;;7.83;6.70;;;7.60;99.90;;;;;;4989097;28;20620;-66
2023/10/28 23:41:34;;;;;;;7.93;7.10;;;7.60;99.90;;;;;;4989419;28;20207;-66
2023/10/28 23:44:03;;;;;;;10.50;7.63;;;7.60;99.90;;;;;;4989287;28;20335;-66
2023/10/28 23:46:32;;;;;;;8.00;6.83;;;7.70;99.90;;;;;;4988562;28;20201;-67
2023/10/28 23:49:09;;;;;;;10.23;6.83;;;7.70;99.90;;;;;;4989295;28;20285;-67
2023/10/28 23:51:38;;;;;;;13.73;8.50;;;7.60;99.90;;;;;;4989868;28;20210;-67
2023/10/28 23:54:08;;;;;;;12.43;7.83;;;7.60;99.90;;;;;;4990037;28;20273;-66
2023/10/28 23:56:45;;;;;;;10.53;7.97;;;7.70;99.90;;;;;;4989199;28;20246;-67
2023/10/28 23:59:24;;;;;;;12.00;8.37;;;7.70;99.90;;;;;;4990163;28;20311;-66
